Time;durP1;ratioP1;P1;durP2;ratioP2;P2;SDS_P1;SDS_P2;PMS_P1;PMS_P2;Temp;Humidity;BMP_temperature;BMP_pressure;BME280_temperature;BME280_humidity;BME280_pressure;Samples;Min_cycle;Max_cycle;Signal;HPM_P1;HPM_P2
2024/02/22 00:00:48;;;;;;;3.15;1.50;;;10.80;99.90;;;;;;2059779;28;20025;-70
2024/02/22 00:01:48;;;;;;;2.25;1.60;;;10.80;99.90;;;;;;2060642;28;20026;-71
2024/02/22 00:02:52;;;;;;;3.67;1.40;;;10.80;99.90;;;;;;2059791;28;20025;-71
2024/02/22 00:03:52;;;;;;;4.05;1.80;;;10.80;99.90;;;;;;2061065;28;20069;-70
2024/02/22 00:04:54;;;;;;;3.05;1.42;;;10.80;99.90;;;;;;2060288;28;20057;-70
2024/02/22 00:05:55;;;;;;;3.00;1.50;;;10.80;99.90;;;;;;2061197;28;20389;-70
2024/02/22 00:06:57;;;;;;;2.72;1.48;;;10.80;99.90;;;;;;2059731;28;20033;-70
2024/02/22 00:07:57;;;;;;;2.60;1.30;;;10.80;99.90;;;;;;2059831;28;20050;-70
2024/02/22 00:08:58;;;;;;;2.20;1.40;;;10.80;99.90;;;;;;2056242;28;20107;-70
2024/02/22 00:10:00;;;;;;;4.03;1.60;;;10.80;99.90;;;;;;2059582;28;20065;-70
2024/02/22 00:11:01;;;;;;;2.25;1.30;;;10.80;99.90;;;;;;2059183;28;20515;-71
2024/02/22 00:12:02;;;;;;;1.70;1.10;;;10.70;99.90;;;;;;2060205;28;20021;-70
2024/02/22 00:13:02;;;;;;;1.92;1.10;;;10.70;99.90;;;;;;2060104;28;20037;-69
2024/02/22 00:14:03;;;;;;;2.00;1.30;;;10.80;99.90;;;;;;2058202;28;20465;-70
2024/02/22 00:15:04;;;;;;;2.75;1.27;;;10.90;99.90;;;;;;2058129;28;20014;-70
2024/02/22 00:16:08;;;;;;;3.47;1.35;;;10.90;99.90;;;;;;2060042;28;20050;-70
2024/02/22 00:17:09;;;;;;;1.85;1.13;;;10.90;99.90;;;;;;2050915;28;20026;-70
2024/02/22 00:18:09;;;;;;;1.73;1.10;;;10.90;99.90;;;;;;2052479;28;20509;-71
2024/02/22 00:19:10;;;;;;;1.45;1.10;;;10.90;99.90;;;;;;2060944;28;20217;-70
2024/02/22 00:20:12;;;;;;;2.80;1.15;;;10.90;99.90;;;;;;2060562;28;20520;-71
2024/02/22 00:21:13;;;;;;;2.42;1.10;;;10.90;99.90;;;;;;2057271;28;20025;-70
2024/02/22 00:22:14;;;;;;;1.65;1.10;;;10.90;99.90;;;;;;2055873;28;20026;-70
2024/02/22 00:23:15;;;;;;;2.47;1.00;;;10.90;99.90;;;;;;2060677;28;20374;-70
2024/02/22 00:24:15;;;;;;;2.72;1.20;;;11.00;99.90;;;;;;2057752;28;20481;-70
2024/02/22 00:25:18;;;;;;;1.23;1.00;;;11.00;99.90;;;;;;2059148;28;20223;-70
2024/02/22 00:26:21;;;;;;;1.88;1.10;;;11.00;99.90;;;;;;2059254;28;20022;-70
2024/02/22 00:27:21;;;;;;;1.10;0.90;;;11.00;99.90;;;;;;2055628;28;20061;-70
2024/02/22 00:28:22;;;;;;;1.27;1.10;;;11.10;99.90;;;;;;2060003;28;20426;-70
2024/02/22 00:29:22;;;;;;;1.27;1.02;;;11.00;99.90;;;;;;2062247;28;20141;-71
2024/02/22 00:30:24;;;;;;;1.45;1.20;;;11.10;99.90;;;;;;2060170;28;20026;-70
2024/02/22 00:31:25;;;;;;;1.05;0.93;;;11.00;99.90;;;;;;2055119;28;20598;-71
2024/02/22 00:32:26;;;;;;;2.05;1.00;;;11.00;99.90;;;;;;2059444;28;20054;-71
2024/02/22 00:33:27;;;;;;;2.75;1.10;;;11.00;99.90;;;;;;2055890;28;20081;-72
2024/02/22 00:34:27;;;;;;;1.13;1.00;;;11.00;99.90;;;;;;2060119;28;20112;-71
2024/02/22 00:35:28;;;;;;;2.35;1.15;;;11.00;99.90;;;;;;2059674;28;20026;-70
2024/02/22 00:36:29;;;;;;;1.30;1.13;;;11.10;99.90;;;;;;2059478;28;20025;-69
2024/02/22 00:37:30;;;;;;;2.38;1.20;;;11.00;99.90;;;;;;2052684;28;20035;-70
2024/02/22 00:38:30;;;;;;;1.83;1.13;;;11.00;99.90;;;;;;2058762;28;20030;-70
2024/02/22 00:39:31;;;;;;;1.42;1.00;;;11.00;99.90;;;;;;2060358;28;20552;-69
2024/02/22 00:40:32;;;;;;;1.48;1.20;;;11.00;99.90;;;;;;2060613;28;20027;-70
2024/02/22 00:41:32;;;;;;;1.50;1.20;;;11.00;99.90;;;;;;2060484;28;20551;-71
2024/02/22 00:42:33;;;;;;;2.55;1.20;;;10.90;99.90;;;;;;2060772;28;20074;-71
2024/02/22 00:43:34;;;;;;;3.30;1.10;;;10.90;99.90;;;;;;2056256;28;20057;-70
2024/02/22 00:44:36;;;;;;;2.90;1.23;;;10.90;99.90;;;;;;2056988;28;20070;-71
2024/02/22 00:45:36;;;;;;;1.77;1.15;;;10.90;99.90;;;;;;2060431;28;20030;-71
2024/02/22 00:46:37;;;;;;;2.42;1.20;;;10.90;99.90;;;;;;2061018;28;20018;-70
2024/02/22 00:47:38;;;;;;;1.10;1.00;;;10.90;99.90;;;;;;2046880;28;20023;-70
2024/02/22 00:48:38;;;;;;;2.10;1.30;;;10.90;99.90;;;;;;2040669;29;20039;-70
2024/02/22 00:49:39;;;;;;;2.20;1.20;;;10.80;99.90;;;;;;2059591;28;20030;-71
2024/02/22 00:50:39;;;;;;;2.20;1.30;;;10.80;99.90;;;;;;2060463;28;20030;-71
2024/02/22 00:51:41;;;;;;;1.77;1.10;;;10.80;99.90;;;;;;2059405;28;20022;-71
2024/02/22 00:52:42;;;;;;;1.60;1.27;;;10.80;99.90;;;;;;2060729;28;20022;-70
2024/02/22 00:53:42;;;;;;;1.40;1.20;;;10.80;99.90;;;;;;2060344;28;20030;-70
2024/02/22 00:54:44;;;;;;;1.95;1.10;;;10.80;99.90;;;;;;2060932;28;20089;-70
2024/02/22 00:55:44;;;;;;;4.00;1.17;;;10.70;99.90;;;;;;2060593;28;20043;-70
2024/02/22 00:56:45;;;;;;;2.17;1.13;;;10.70;99.90;;;;;;2058274;28;20146;-70
2024/02/22 00:57:46;;;;;;;1.83;1.25;;;10.70;99.90;;;;;;2054922;28;20057;-70
2024/02/22 00:58:47;;;;;;;3.22;1.13;;;10.70;99.90;;;;;;2060024;28;20038;-70
2024/02/22 00:59:47;;;;;;;4.03;1.08;;;10.60;99.90;;;;;;2059194;28;20050;-70
2024/02/22 01:00:49;;;;;;;3.08;1.20;;;10.50;99.90;;;;;;2061047;28;20049;-70
2024/02/22 01:01:50;;;;;;;1.73;1.20;;;10.50;99.90;;;;;;2055306;28;20553;-69
2024/02/22 01:02:50;;;;;;;2.78;1.20;;;10.50;99.90;;;;;;2059484;28;20326;-70
2024/02/22 01:03:51;;;;;;;1.95;1.13;;;10.40;99.90;;;;;;2060087;28;20459;-70
2024/02/22 01:04:52;;;;;;;1.10;1.00;;;10.40;99.90;;;;;;2060537;28;20026;-70
2024/02/22 01:05:53;;;;;;;2.47;1.30;;;10.40;99.90;;;;;;2060103;28;20104;-69
2024/02/22 01:06:56;;;;;;;1.75;1.20;;;10.40;99.90;;;;;;2058901;28;20026;-70
2024/02/22 01:07:56;;;;;;;1.10;1.00;;;10.30;99.90;;;;;;2061815;28;20066;-70
2024/02/22 01:08:57;;;;;;;1.23;1.13;;;10.30;99.90;;;;;;2060138;28;20416;-70
2024/02/22 01:09:58;;;;;;;1.48;1.17;;;10.30;99.90;;;;;;2062853;28;20546;-70
2024/02/22 01:10:58;;;;;;;1.60;1.20;;;10.20;99.90;;;;;;2057538;28;20034;-70
2024/02/22 01:11:59;;;;;;;1.80;1.20;;;10.30;99.90;;;;;;2056999;28;20493;-70
2024/02/22 01:12:59;;;;;;;1.38;1.10;;;10.20;99.90;;;;;;2044551;28;20565;-70
2024/02/22 01:14:00;;;;;;;1.98;1.20;;;10.20;99.90;;;;;;2052193;28;20476;-70
2024/02/22 01:15:01;;;;;;;3.50;1.42;;;10.20;99.90;;;;;;2057141;28;20042;-70
2024/02/22 01:16:02;;;;;;;1.98;1.15;;;10.20;99.90;;;;;;2062139;28;20022;-70
2024/02/22 01:17:02;;;;;;;3.55;1.30;;;10.20;99.90;;;;;;2061705;28;20738;-70
2024/02/22 01:18:03;;;;;;;3.90;1.30;;;10.20;99.90;;;;;;2061705;28;20552;-70
2024/02/22 01:19:04;;;;;;;1.27;1.10;;;10.20;99.90;;;;;;2061993;28;20676;-70
2024/02/22 01:20:05;;;;;;;2.03;1.17;;;10.20;99.90;;;;;;2060640;28;20660;-70
2024/02/22 01:21:06;;;;;;;1.77;1.23;;;10.20;99.90;;;;;;2060750;28;20369;-70
2024/02/22 01:22:08;;;;;;;2.50;1.10;;;10.20;99.90;;;;;;2056847;28;20029;-70
2024/02/22 01:23:08;;;;;;;1.15;1.00;;;10.20;99.90;;;;;;2061640;28;20023;-70
2024/02/22 01:24:09;;;;;;;2.78;1.15;;;10.20;99.90;;;;;;2064341;28;20033;-70
2024/02/22 01:25:11;;;;;;;4.00;1.20;;;10.20;99.90;;;;;;2062962;28;20023;-69
2024/02/22 01:26:12;;;;;;;1.80;1.10;;;10.20;99.90;;;;;;2057435;28;20507;-70
2024/02/22 01:27:12;;;;;;;2.83;1.20;;;10.30;99.90;;;;;;2056683;28;20030;-70
2024/02/22 01:28:13;;;;;;;1.40;1.10;;;10.30;99.90;;;;;;2059315;28;20548;-70
2024/02/22 01:29:13;;;;;;;1.90;1.13;;;10.30;99.90;;;;;;2061414;28;20536;-71
2024/02/22 01:30:14;;;;;;;1.85;1.13;;;10.30;99.90;;;;;;2062176;28;20338;-71
2024/02/22 01:31:15;;;;;;;2.10;1.20;;;10.40;99.90;;;;;;2058311;28;20630;-71
2024/02/22 01:32:16;;;;;;;2.08;1.10;;;10.40;99.90;;;;;;2061542;28;20515;-71
2024/02/22 01:33:17;;;;;;;1.67;1.20;;;10.40;99.90;;;;;;2061368;28;20046;-71
2024/02/22 01:34:17;;;;;;;3.05;1.10;;;10.40;99.90;;;;;;2061619;28;20034;-73
2024/02/22 01:35:18;;;;;;;1.38;1.20;;;10.50;99.90;;;;;;2061791;28;20054;-71
2024/02/22 01:36:18;;;;;;;1.77;1.20;;;10.40;99.90;;;;;;2061612;28;20038;-71
2024/02/22 01:37:19;;;;;;;8.07;6.40;;;10.40;99.90;;;;;;2062498;28;20035;-71
2024/02/22 01:38:19;;;;;;;5.55;2.70;;;10.50;99.90;;;;;;2061503;28;20034;-71
2024/02/22 01:39:20;;;;;;;2.63;1.58;;;10.50;99.90;;;;;;2060510;28;20073;-71
2024/02/22 01:40:22;;;;;;;1.58;1.38;;;10.50;99.90;;;;;;2061842;28;20037;-70
2024/02/22 01:41:22;;;;;;;2.80;1.67;;;10.50;99.90;;;;;;2061451;28;20030;-71
2024/02/22 01:42:23;;;;;;;4.20;1.60;;;10.50;99.90;;;;;;2061478;28;20041;-70
2024/02/22 01:43:23;;;;;;;3.75;1.67;;;10.40;99.90;;;;;;2062346;28;20133;-71
2024/02/22 01:44:28;;;;;;;3.30;1.80;;;10.40;99.90;;;;;;2061781;28;20114;-70
2024/02/22 01:45:29;;;;;;;4.55;2.03;;;10.40;99.90;;;;;;2061448;28;20035;-70
2024/02/22 01:46:30;;;;;;;4.13;2.00;;;10.40;99.90;;;;;;2061855;28;20101;-69
2024/02/22 01:47:31;;;;;;;5.20;1.90;;;10.40;99.90;;;;;;2060597;28;20030;-70
2024/02/22 01:48:32;;;;;;;3.38;2.00;;;10.40;99.90;;;;;;2056739;28;20042;-70
2024/02/22 01:49:33;;;;;;;6.22;2.10;;;10.40;99.90;;;;;;2061843;28;20034;-70
2024/02/22 01:50:34;;;;;;;3.83;2.13;;;10.40;99.90;;;;;;2054650;28;20100;-69
2024/02/22 01:51:35;;;;;;;5.25;2.03;;;10.40;99.90;;;;;;2060744;28;20472;-70
2024/02/22 01:52:36;;;;;;;4.07;2.10;;;10.30;99.90;;;;;;2056825;28;20037;-70
2024/02/22 01:53:37;;;;;;;3.90;2.13;;;10.30;99.90;;;;;;2062067;28;20045;-71
2024/02/22 01:54:38;;;;;;;4.88;2.40;;;10.30;99.90;;;;;;2061153;28;20022;-70
2024/02/22 01:55:39;;;;;;;5.00;2.47;;;10.30;99.90;;;;;;2061746;28;20087;-70
2024/02/22 01:56:40;;;;;;;4.93;2.47;;;10.30;99.90;;;;;;2052888;28;20078;-70
2024/02/22 01:57:41;;;;;;;4.47;2.30;;;10.30;99.90;;;;;;2052885;28;20056;-70
2024/02/22 01:58:42;;;;;;;4.47;2.30;;;10.30;99.90;;;;;;2060064;28;20030;-69
2024/02/22 01:59:53;;;;;;;7.05;2.40;;;10.30;99.90;;;;;;2057532;28;20030;-70
2024/02/22 02:00:54;;;;;;;5.70;2.50;;;10.20;99.90;;;;;;2055840;28;20077;-72
2024/02/22 02:01:55;;;;;;;6.50;2.65;;;10.30;99.90;;;;;;2057466;28;20085;-70
2024/02/22 02:02:59;;;;;;;4.60;2.47;;;10.20;99.90;;;;;;2062052;28;20125;-70
2024/02/22 02:04:00;;;;;;;6.25;2.33;;;10.20;99.90;;;;;;2059703;28;20069;-71
2024/02/22 02:05:00;;;;;;;4.38;2.40;;;10.20;99.90;;;;;;2061477;28;20535;-71
2024/02/22 02:06:01;;;;;;;7.13;2.75;;;10.20;99.90;;;;;;2061410;28;20034;-70
2024/02/22 02:07:01;;;;;;;4.32;2.55;;;10.20;99.90;;;;;;2061948;28;20058;-70
2024/02/22 02:08:02;;;;;;;4.53;2.53;;;10.20;99.90;;;;;;2061271;28;20070;-70
2024/02/22 02:09:02;;;;;;;6.32;2.60;;;10.10;99.90;;;;;;2061146;28;20032;-70
2024/02/22 02:10:04;;;;;;;5.43;2.53;;;10.10;99.90;;;;;;2061320;28;20022;-70
2024/02/22 02:11:05;;;;;;;5.32;2.72;;;10.10;99.90;;;;;;2061286;28;20022;-71
2024/02/22 02:12:06;;;;;;;4.63;2.42;;;10.10;99.90;;;;;;2060349;28;20117;-69
2024/02/22 02:13:07;;;;;;;4.97;2.60;;;10.00;99.90;;;;;;2061738;28;20030;-70
2024/02/22 02:14:08;;;;;;;7.47;2.70;;;10.00;99.90;;;;;;2062040;28;20010;-70
2024/02/22 02:15:09;;;;;;;5.85;2.50;;;10.00;99.90;;;;;;2060632;28;20030;-69
2024/02/22 02:16:09;;;;;;;5.15;2.60;;;10.00;99.90;;;;;;2060892;28;20030;-70
2024/02/22 02:17:10;;;;;;;4.25;2.50;;;10.00;99.90;;;;;;2060570;28;20030;-70
2024/02/22 02:18:11;;;;;;;4.88;2.67;;;10.00;99.90;;;;;;2060897;28;20038;-69
2024/02/22 02:19:16;;;;;;;4.07;2.50;;;10.00;99.90;;;;;;2060204;28;20030;-70
2024/02/22 02:20:18;;;;;;;5.45;2.58;;;10.00;99.90;;;;;;2061230;28;20040;-69
2024/02/22 02:21:26;;;;;;;5.35;2.80;;;9.90;99.90;;;;;;2059086;28;20473;-70
2024/02/22 02:23:05;;;;;;;6.22;2.65;;;9.90;99.90;;;;;;2058127;28;20037;-70
2024/02/22 02:24:35;;;;;;;4.18;2.58;;;9.90;99.90;;;;;;2059417;28;20086;-71
2024/02/22 02:25:36;;;;;;;4.90;2.70;;;9.90;99.90;;;;;;2055762;28;20446;-71
2024/02/22 02:26:36;;;;;;;4.60;2.50;;;9.90;99.90;;;;;;2062110;28;20038;-76
2024/02/22 02:27:37;;;;;;;4.88;2.42;;;9.90;99.90;;;;;;2060125;28;20022;-85
2024/02/22 02:28:38;;;;;;;6.63;2.65;;;9.80;99.90;;;;;;2061735;28;20038;-86
2024/02/22 02:29:38;;;;;;;6.32;2.50;;;9.80;99.90;;;;;;2060086;28;20031;-87
2024/02/22 02:30:39;;;;;;;4.32;2.60;;;9.80;99.90;;;;;;2065472;28;20020;-87
2024/02/22 02:31:39;;;;;;;6.50;2.78;;;9.80;99.90;;;;;;2060602;28;20023;-85
2024/02/22 02:32:40;;;;;;;4.22;2.70;;;9.80;99.90;;;;;;2060620;28;20102;-85
2024/02/22 02:33:41;;;;;;;5.22;2.60;;;9.80;99.90;;;;;;2063953;28;20034;-85
2024/02/22 02:34:41;;;;;;;5.38;2.20;;;9.80;99.90;;;;;;2064539;28;20109;-86
2024/02/22 02:35:42;;;;;;;5.95;2.42;;;9.80;99.90;;;;;;2064447;28;20057;-86
2024/02/22 02:36:42;;;;;;;3.28;2.30;;;9.70;99.90;;;;;;2065871;28;20022;-83
2024/02/22 02:37:43;;;;;;;5.03;2.20;;;9.70;99.90;;;;;;2063711;28;20585;-86
2024/02/22 02:38:43;;;;;;;4.85;2.60;;;9.70;99.90;;;;;;2062951;28;20036;-85
2024/02/22 02:39:44;;;;;;;4.57;2.45;;;9.70;99.90;;;;;;2058676;28;20038;-88
2024/02/22 02:40:44;;;;;;;4.63;2.70;;;9.60;99.90;;;;;;2064346;28;20108;-87
2024/02/22 02:41:45;;;;;;;4.72;2.40;;;9.70;99.90;;;;;;2063904;28;20097;-87
2024/02/22 02:42:45;;;;;;;5.57;2.50;;;9.70;99.90;;;;;;2062772;28;20038;-85
2024/02/22 02:43:46;;;;;;;5.35;2.60;;;9.60;99.90;;;;;;2062555;28;20037;-87
2024/02/22 02:44:48;;;;;;;5.63;2.50;;;9.60;99.90;;;;;;2063275;28;20061;-87
2024/02/22 02:45:48;;;;;;;4.57;2.45;;;9.60;99.90;;;;;;2064409;28;20148;-87
2024/02/22 02:46:49;;;;;;;4.38;2.20;;;9.60;99.90;;;;;;2061705;28;20045;-88
2024/02/22 02:47:49;;;;;;;4.10;2.30;;;9.60;99.90;;;;;;2061813;28;20050;-88
2024/02/22 02:48:50;;;;;;;5.82;2.42;;;9.60;99.90;;;;;;2064251;28;20319;-87
2024/02/22 02:49:50;;;;;;;3.47;2.00;;;9.60;99.90;;;;;;2063724;28;20027;-87
2024/02/22 02:50:51;;;;;;;6.47;2.47;;;9.60;99.90;;;;;;2063660;28;20057;-86
2024/02/22 02:51:51;;;;;;;5.82;2.38;;;9.60;99.90;;;;;;2063056;28;20041;-85
2024/02/22 02:52:53;;;;;;;4.40;2.33;;;9.60;99.90;;;;;;2061990;28;20452;-85
2024/02/22 02:53:53;;;;;;;7.57;2.70;;;9.60;99.90;;;;;;2063698;28;20050;-85
2024/02/22 02:54:54;;;;;;;3.63;2.20;;;9.60;99.90;;;;;;2063122;28;20080;-87
2024/02/22 02:55:55;;;;;;;4.82;2.40;;;9.50;99.90;;;;;;2063050;28;20134;-86
2024/02/22 02:56:55;;;;;;;4.70;2.47;;;9.50;99.90;;;;;;2064149;28;20026;-87
2024/02/22 02:57:58;;;;;;;3.92;2.20;;;9.50;99.90;;;;;;2063882;28;20429;-86
2024/02/22 02:58:59;;;;;;;4.60;2.60;;;9.50;99.90;;;;;;2063884;28;20629;-87
2024/02/22 02:59:59;;;;;;;4.80;2.40;;;9.50;99.90;;;;;;2062787;28;20790;-87
2024/02/22 03:01:00;;;;;;;3.58;2.40;;;9.50;99.90;;;;;;2063444;28;20033;-87
2024/02/22 03:02:00;;;;;;;6.10;2.40;;;9.50;99.90;;;;;;2062589;28;20018;-86
2024/02/22 03:03:01;;;;;;;3.15;2.15;;;9.50;99.90;;;;;;2063519;28;20030;-87
2024/02/22 03:04:02;;;;;;;4.45;2.38;;;9.40;99.90;;;;;;2064149;28;20038;-85
2024/02/22 03:05:03;;;;;;;3.80;2.30;;;9.40;99.90;;;;;;2063523;28;20600;-84
2024/02/22 03:06:04;;;;;;;5.22;2.22;;;9.40;99.90;;;;;;2063816;28;20042;-84
2024/02/22 03:07:04;;;;;;;3.47;2.10;;;9.40;99.90;;;;;;2064149;28;20121;-81
2024/02/22 03:08:06;;;;;;;4.78;2.30;;;9.50;99.90;;;;;;2063628;28;20042;-85
2024/02/22 03:09:06;;;;;;;2.72;2.00;;;9.40;99.90;;;;;;2059193;28;20386;-87
2024/02/22 03:10:07;;;;;;;2.22;1.80;;;9.40;99.90;;;;;;2064511;28;20037;-85
2024/02/22 03:11:08;;;;;;;4.03;2.30;;;9.50;99.90;;;;;;2063423;28;20023;-87
2024/02/22 03:12:08;;;;;;;3.40;2.03;;;9.50;99.90;;;;;;2064410;28;20018;-88
2024/02/22 03:13:11;;;;;;;4.05;2.35;;;9.50;99.90;;;;;;2064566;28;20030;-84
2024/02/22 03:14:11;;;;;;;4.78;2.30;;;9.50;99.90;;;;;;2064196;28;20033;-86
2024/02/22 03:15:13;;;;;;;3.72;2.28;;;9.50;99.90;;;;;;2061267;28;20051;-89
2024/02/22 03:16:14;;;;;;;3.38;2.13;;;9.50;99.90;;;;;;2065087;28;20019;-90
2024/02/22 03:17:14;;;;;;;3.08;2.20;;;9.40;99.90;;;;;;2064155;28;20030;-86
2024/02/22 03:18:15;;;;;;;2.67;2.10;;;9.50;99.90;;;;;;2063215;28;20045;-86
2024/02/22 03:19:15;;;;;;;4.97;2.28;;;9.40;99.90;;;;;;2063958;28;20056;-88
2024/02/22 03:20:17;;;;;;;5.00;2.17;;;9.40;99.90;;;;;;2064549;28;20042;-87
2024/02/22 03:21:21;;;;;;;3.97;2.30;;;9.40;99.90;;;;;;2062105;28;20038;-87
2024/02/22 03:22:21;;;;;;;3.53;2.35;;;9.50;99.90;;;;;;2064764;28;20034;-87
2024/02/22 03:23:23;;;;;;;3.25;2.17;;;9.50;99.90;;;;;;2062715;28;20411;-87
2024/02/22 03:24:24;;;;;;;5.18;2.10;;;9.40;99.90;;;;;;2061965;28;20014;-87
2024/02/22 03:25:27;;;;;;;4.07;2.10;;;9.40;99.90;;;;;;2064537;28;20030;-87
2024/02/22 03:26:28;;;;;;;3.70;2.28;;;9.40;99.90;;;;;;2062553;28;20022;-86
2024/02/22 03:27:28;;;;;;;2.65;2.10;;;9.40;99.90;;;;;;2062863;28;20022;-87
2024/02/22 03:28:29;;;;;;;4.05;2.20;;;9.40;99.90;;;;;;2062914;28;20831;-87
2024/02/22 03:29:30;;;;;;;3.38;2.13;;;9.40;99.90;;;;;;2062869;28;20034;-87
2024/02/22 03:30:33;;;;;;;3.67;2.22;;;9.40;99.90;;;;;;2063858;28;20046;-85
2024/02/22 03:31:33;;;;;;;4.60;2.03;;;9.30;99.90;;;;;;2059698;28;20471;-87
2024/02/22 03:32:36;;;;;;;5.07;2.13;;;9.40;99.90;;;;;;2055753;28;20141;-87
2024/02/22 03:33:37;;;;;;;4.80;2.25;;;9.30;99.90;;;;;;2055683;28;20031;-87
2024/02/22 03:34:37;;;;;;;4.70;2.42;;;9.30;99.90;;;;;;2063553;28;20488;-86
2024/02/22 03:35:38;;;;;;;4.13;2.20;;;9.30;99.90;;;;;;2063489;28;20133;-86
2024/02/22 03:36:41;;;;;;;4.13;2.20;;;9.30;99.90;;;;;;2064172;28;20488;-86
2024/02/22 03:37:42;;;;;;;3.53;2.10;;;9.30;99.90;;;;;;2063264;28;20404;-88
2024/02/22 03:38:43;;;;;;;3.75;2.40;;;9.30;99.90;;;;;;2064700;28;20645;-87
2024/02/22 03:39:49;;;;;;;2.70;2.08;;;9.20;99.90;;;;;;2063426;28;20045;-86
2024/02/22 03:40:50;;;;;;;4.70;2.20;;;9.30;99.90;;;;;;2064545;28;20026;-85
2024/02/22 03:41:52;;;;;;;3.72;2.47;;;9.30;99.90;;;;;;2063071;28;20037;-85
2024/02/22 03:42:52;;;;;;;2.80;2.20;;;9.30;99.90;;;;;;2063746;28;20034;-87
2024/02/22 03:43:53;;;;;;;2.55;2.10;;;9.30;99.90;;;;;;2064557;28;20023;-86
2024/02/22 03:44:54;;;;;;;5.05;2.50;;;9.30;99.90;;;;;;2062077;28;20036;-86
2024/02/22 03:45:55;;;;;;;4.18;2.33;;;9.30;99.90;;;;;;2059289;28;20144;-89
2024/02/22 03:46:56;;;;;;;4.45;2.22;;;9.30;99.90;;;;;;2064937;28;20030;-86
2024/02/22 03:47:56;;;;;;;4.60;2.38;;;9.30;99.90;;;;;;2064897;28;20061;-89
2024/02/22 03:48:57;;;;;;;3.25;2.00;;;9.40;99.90;;;;;;2062935;28;20018;-87
2024/02/22 03:49:58;;;;;;;2.58;2.10;;;9.40;99.90;;;;;;2060640;28;20038;-89
2024/02/22 03:50:58;;;;;;;3.13;2.10;;;9.40;99.90;;;;;;2063193;28;20113;-87
2024/02/22 03:51:59;;;;;;;6.45;2.33;;;9.40;99.90;;;;;;2065450;28;20069;-89
2024/02/22 03:52:59;;;;;;;3.08;2.10;;;9.40;99.90;;;;;;2063560;28;20038;-89
2024/02/22 03:54:00;;;;;;;4.32;2.10;;;9.40;99.90;;;;;;2064833;28;20038;-90
2024/02/22 03:55:02;;;;;;;3.53;1.90;;;9.40;99.90;;;;;;2061785;28;20026;-89
2024/02/22 03:56:03;;;;;;;3.78;2.00;;;9.40;99.90;;;;;;2061946;28;20023;-85
2024/02/22 03:57:04;;;;;;;4.22;2.10;;;9.40;99.90;;;;;;2064428;28;20022;-86
2024/02/22 03:58:06;;;;;;;3.10;2.05;;;9.40;99.90;;;;;;2065929;28;20029;-85
2024/02/22 03:59:07;;;;;;;2.22;1.85;;;9.40;99.90;;;;;;2065727;28;20089;-90
2024/02/22 04:00:08;;;;;;;3.60;2.22;;;9.40;99.90;;;;;;2067066;28;20042;-87
2024/02/22 04:01:14;;;;;;;3.20;1.80;;;9.40;99.90;;;;;;2062455;28;20469;-88
2024/02/22 04:02:15;;;;;;;3.78;2.05;;;9.50;99.90;;;;;;2061550;28;20031;-87
2024/02/22 04:03:16;;;;;;;2.72;1.90;;;9.40;99.90;;;;;;2066453;28;20038;-87
2024/02/22 04:04:16;;;;;;;2.13;1.88;;;9.40;99.90;;;;;;2060698;28;20054;-89
2024/02/22 04:05:17;;;;;;;2.28;1.83;;;9.40;99.90;;;;;;2067318;28;20035;-87
2024/02/22 04:06:17;;;;;;;2.45;1.80;;;9.40;99.90;;;;;;2071223;28;20030;-85
2024/02/22 04:07:18;;;;;;;3.67;2.17;;;9.50;99.90;;;;;;2071449;28;20034;-88
2024/02/22 04:08:19;;;;;;;2.97;2.08;;;9.50;99.90;;;;;;2068036;28;20107;-86
2024/02/22 04:09:20;;;;;;;2.58;2.05;;;9.40;99.90;;;;;;2071709;28;20026;-84
2024/02/22 04:10:21;;;;;;;3.03;1.90;;;9.40;99.90;;;;;;2070301;28;20052;-85
2024/02/22 04:11:21;;;;;;;2.22;1.92;;;9.40;99.90;;;;;;2065351;28;20074;-87
2024/02/22 04:12:22;;;;;;;3.78;2.05;;;9.40;99.90;;;;;;2069814;28;20093;-80
2024/02/22 04:13:22;;;;;;;3.72;2.50;;;9.40;99.90;;;;;;2067175;28;20033;-86
2024/02/22 04:14:23;;;;;;;4.05;2.60;;;9.50;99.90;;;;;;2065004;28;20026;-87
2024/02/22 04:15:23;;;;;;;3.72;2.10;;;9.40;99.90;;;;;;2064826;28;20050;-87
2024/02/22 04:16:24;;;;;;;2.90;2.33;;;9.50;99.90;;;;;;2063760;28;20236;-87
2024/02/22 04:17:24;;;;;;;3.90;2.42;;;9.50;99.90;;;;;;2062517;28;20121;-88
2024/02/22 04:18:25;;;;;;;2.97;2.28;;;9.50;99.90;;;;;;2061081;28;20033;-87
2024/02/22 04:19:25;;;;;;;3.55;2.55;;;9.50;99.90;;;;;;2058891;28;20034;-88
2024/02/22 04:20:26;;;;;;;3.55;2.17;;;9.50;99.90;;;;;;2062687;28;20038;-89
2024/02/22 04:21:27;;;;;;;4.00;3.05;;;9.50;99.90;;;;;;2063040;28;20030;-85
2024/02/22 04:22:27;;;;;;;4.18;2.50;;;9.40;99.90;;;;;;2063291;28;20093;-88
2024/02/22 04:23:28;;;;;;;5.45;2.72;;;9.50;99.90;;;;;;2062642;28;20049;-90
2024/02/22 04:24:28;;;;;;;2.72;2.10;;;9.40;99.90;;;;;;2063328;28;20618;-87
2024/02/22 04:25:29;;;;;;;3.17;2.38;;;9.40;99.90;;;;;;2062348;28;20511;-88
2024/02/22 04:26:29;;;;;;;3.42;2.80;;;9.40;99.90;;;;;;2062560;28;20049;-88
2024/02/22 04:27:31;;;;;;;4.53;2.85;;;9.40;99.90;;;;;;2058104;28;20042;-88
2024/02/22 04:28:31;;;;;;;7.28;4.15;;;9.40;99.90;;;;;;2062764;28;20053;-88
2024/02/22 04:29:32;;;;;;;3.17;2.13;;;9.40;99.90;;;;;;2063504;28;20529;-86
2024/02/22 04:30:32;;;;;;;5.55;2.20;;;9.40;99.90;;;;;;2062401;28;20026;-88
2024/02/22 04:31:33;;;;;;;4.20;2.15;;;9.40;99.90;;;;;;2059340;28;20608;-88
2024/02/22 04:32:33;;;;;;;2.20;1.98;;;9.40;99.90;;;;;;2062800;28;20113;-88
2024/02/22 04:33:34;;;;;;;2.97;2.10;;;9.40;99.90;;;;;;2063203;28;20082;-90
2024/02/22 04:34:35;;;;;;;2.95;2.20;;;9.40;99.90;;;;;;2063126;28;20034;-88
2024/02/22 04:35:36;;;;;;;2.88;2.20;;;9.40;99.90;;;;;;2062481;28;20435;-89
2024/02/22 04:36:40;;;;;;;2.88;2.20;;;9.40;99.90;;;;;;2063581;28;20036;-86
2024/02/22 04:37:41;;;;;;;3.00;2.10;;;9.40;99.90;;;;;;2064175;28;20457;-87
2024/02/22 04:38:42;;;;;;;2.70;2.20;;;9.40;99.90;;;;;;2060241;28;20050;-89
2024/02/22 04:39:42;;;;;;;3.08;2.17;;;9.40;99.90;;;;;;2062473;28;20378;-86
2024/02/22 04:40:44;;;;;;;3.33;2.33;;;9.40;99.90;;;;;;2064175;28;20034;-89
2024/02/22 04:41:44;;;;;;;3.72;2.20;;;9.40;99.90;;;;;;2066645;28;20120;-88
2024/02/22 04:42:47;;;;;;;3.22;2.33;;;9.40;99.90;;;;;;2066586;28;20497;-86
2024/02/22 04:43:48;;;;;;;2.72;2.00;;;9.40;99.90;;;;;;2066551;28;20034;-88
2024/02/22 04:44:48;;;;;;;5.70;2.10;;;9.40;99.90;;;;;;2069546;28;20042;-88
2024/02/22 04:45:50;;;;;;;3.17;2.28;;;9.40;99.90;;;;;;2063939;28;20540;-89
2024/02/22 04:46:51;;;;;;;5.75;2.80;;;9.40;99.90;;;;;;2068936;28;20045;-87
2024/02/22 04:47:51;;;;;;;2.72;2.10;;;9.40;99.90;;;;;;2063169;28;20060;-84
2024/02/22 04:48:52;;;;;;;3.22;2.30;;;9.40;99.90;;;;;;2068623;28;20045;-88
2024/02/22 04:49:52;;;;;;;3.33;2.20;;;9.30;99.90;;;;;;2068524;28;20098;-89
2024/02/22 04:50:53;;;;;;;3.03;2.30;;;9.30;99.90;;;;;;2065782;28;20034;-87
2024/02/22 04:51:54;;;;;;;6.47;2.50;;;9.30;99.90;;;;;;2064622;28;20050;-90
2024/02/22 04:52:55;;;;;;;2.78;2.20;;;9.30;99.90;;;;;;2059724;28;20169;-88
2024/02/22 04:53:56;;;;;;;3.10;2.22;;;9.30;99.90;;;;;;2060055;28;20101;-85
2024/02/22 04:54:59;;;;;;;2.72;2.08;;;9.40;99.90;;;;;;2062915;28;20347;-86
2024/02/22 04:55:59;;;;;;;2.47;2.00;;;9.40;99.90;;;;;;2059642;28;20020;-84
2024/02/22 04:57:00;;;;;;;3.55;2.25;;;9.40;99.90;;;;;;2062822;28;20026;-87
2024/02/22 04:58:02;;;;;;;2.80;2.10;;;9.40;99.90;;;;;;2056984;28;20023;-88
2024/02/22 04:59:03;;;;;;;3.15;1.83;;;9.40;99.90;;;;;;2061011;28;20396;-87
2024/02/22 05:00:05;;;;;;;2.67;1.92;;;9.40;99.90;;;;;;2062121;28;20034;-87
2024/02/22 05:01:05;;;;;;;4.38;2.75;;;9.40;99.90;;;;;;2061611;28;20042;-87
2024/02/22 05:02:07;;;;;;;3.85;2.88;;;9.30;99.90;;;;;;2062114;28;20018;-85
2024/02/22 05:03:08;;;;;;;4.97;3.47;;;9.30;99.90;;;;;;2059714;28;20282;-85
2024/02/22 05:04:09;;;;;;;3.03;2.22;;;9.30;99.90;;;;;;2057979;28;20515;-85
2024/02/22 05:05:10;;;;;;;3.90;2.70;;;9.30;99.90;;;;;;2061062;28;20045;-84
2024/02/22 05:06:11;;;;;;;2.50;2.25;;;9.30;99.90;;;;;;2061456;28;20125;-85
2024/02/22 05:07:11;;;;;;;3.53;2.35;;;9.30;99.90;;;;;;2061237;28;20026;-83
2024/02/22 05:08:12;;;;;;;3.08;2.35;;;9.40;99.90;;;;;;2058845;28;20046;-86
2024/02/22 05:09:13;;;;;;;4.40;2.50;;;9.40;99.90;;;;;;2057912;28;20031;-83
2024/02/22 05:10:15;;;;;;;4.07;2.42;;;9.30;99.90;;;;;;2059155;28;20585;-84
2024/02/22 05:11:15;;;;;;;2.78;2.30;;;9.40;99.90;;;;;;2061617;28;20053;-84
2024/02/22 05:12:16;;;;;;;2.83;2.53;;;9.30;99.90;;;;;;2060073;28;20045;-86
2024/02/22 05:13:16;;;;;;;3.08;2.30;;;9.30;99.90;;;;;;2060099;28;20039;-86
2024/02/22 05:14:17;;;;;;;3.42;2.85;;;9.30;99.90;;;;;;2059104;28;20030;-85
2024/02/22 05:15:18;;;;;;;3.78;2.38;;;9.30;99.90;;;;;;2059795;28;20041;-86
2024/02/22 05:16:19;;;;;;;3.83;2.38;;;9.30;99.90;;;;;;2059677;28;20464;-85
2024/02/22 05:17:21;;;;;;;4.05;2.40;;;9.30;99.90;;;;;;2057369;28;20030;-87
2024/02/22 05:18:21;;;;;;;2.67;2.05;;;9.30;99.90;;;;;;2059147;28;20034;-87
2024/02/22 05:19:22;;;;;;;3.47;2.30;;;9.30;99.90;;;;;;2059493;28;20148;-86
2024/02/22 05:20:22;;;;;;;4.88;2.15;;;9.30;99.90;;;;;;2060282;28;20069;-85
2024/02/22 05:21:23;;;;;;;4.43;2.10;;;9.30;99.90;;;;;;2059476;28;20560;-86